createdAt,value
2023-08-08T00:02:06.683Z,12.31
2023-08-08T00:05:09.622Z,12.32
2023-08-08T00:08:11.542Z,12.33
2023-08-08T00:11:13.425Z,12.35
2023-08-08T00:14:15.502Z,12.34
2023-08-08T00:17:17.383Z,12.31
2023-08-08T00:20:19.273Z,12.33
2023-08-08T00:23:21.194Z,12.38
2023-08-08T00:26:23.069Z,12.40
2023-08-08T00:29:25.155Z,12.40
2023-08-08T00:32:26.979Z,12.39
2023-08-08T00:35:28.932Z,12.32
2023-08-08T00:38:30.944Z,12.29
2023-08-08T00:41:32.771Z,12.33
2023-08-08T00:44:34.625Z,12.28
2023-08-08T00:47:36.643Z,12.35
2023-08-08T00:50:45.170Z,12.42
2023-08-08T00:53:48.563Z,12.45
2023-08-08T00:56:50.490Z,12.47
2023-08-08T00:59:52.775Z,12.54
2023-08-08T01:02:54.752Z,12.52
2023-08-08T01:06:09.954Z,12.55
2023-08-08T01:09:29.713Z,12.53
2023-08-08T01:12:32.640Z,12.50
2023-08-08T01:15:38.783Z,12.52
2023-08-08T01:18:46.002Z,12.45
2023-08-08T01:21:53.057Z,12.50
2023-08-08T01:24:55.726Z,12.50
2023-08-08T01:27:57.591Z,12.55
2023-08-08T01:30:59.539Z,12.58
2023-08-08T01:34:01.478Z,12.59
2023-08-08T01:37:19.293Z,12.55
2023-08-08T01:40:22.699Z,12.61
2023-08-08T01:43:25.545Z,12.60
2023-08-08T01:46:28.029Z,12.64
2023-08-08T01:49:29.981Z,12.77
2023-08-08T01:52:31.852Z,12.78
2023-08-08T01:55:33.811Z,12.67
2023-08-08T01:58:35.587Z,12.71
2023-08-08T02:01:37.667Z,12.77
2023-08-08T02:04:40.303Z,12.75
2023-08-08T02:07:42.190Z,12.72
2023-08-08T02:10:44.069Z,12.76
2023-08-08T02:13:45.944Z,12.81
2023-08-08T02:16:47.804Z,12.70
2023-08-08T02:19:49.928Z,12.76
2023-08-08T02:22:51.838Z,12.78
2023-08-08T02:25:53.703Z,12.80
2023-08-08T02:28:55.589Z,12.77
2023-08-08T02:31:57.710Z,12.83
2023-08-08T02:34:59.795Z,12.74
2023-08-08T02:38:01.645Z,12.78
2023-08-08T02:41:03.494Z,12.86
2023-08-08T02:44:05.347Z,12.74
2023-08-08T02:47:07.467Z,12.59
2023-08-08T02:50:09.995Z,12.46
2023-08-08T02:53:12.460Z,12.56
2023-08-08T02:56:14.310Z,12.60
2023-08-08T02:59:16.177Z,12.58
2023-08-08T03:02:18.084Z,12.57
2023-08-08T03:05:19.948Z,12.54
2023-08-08T03:08:21.742Z,12.60
2023-08-08T03:11:23.606Z,12.69
2023-08-08T03:14:25.413Z,12.56
2023-08-08T03:17:27.313Z,12.52
2023-08-08T03:20:29.209Z,12.52
2023-08-08T03:23:31.200Z,12.64
2023-08-08T03:26:33.026Z,12.56
2023-08-08T03:29:34.869Z,12.48
2023-08-08T03:32:36.706Z,12.58
2023-08-08T03:35:38.512Z,12.48
2023-08-08T03:38:40.371Z,12.31
2023-08-08T03:41:42.165Z,12.21
2023-08-08T03:44:46.292Z,12.13
2023-08-08T03:47:48.660Z,12.21
2023-08-08T03:50:50.584Z,12.26
2023-08-08T03:53:52.479Z,12.24
2023-08-08T03:56:54.401Z,12.17
2023-08-08T03:59:56.451Z,12.29
2023-08-08T04:02:58.540Z,12.40
2023-08-08T04:06:00.468Z,12.25
2023-08-08T04:09:02.408Z,12.28
2023-08-08T04:12:04.533Z,12.25
2023-08-08T04:15:06.798Z,12.27
2023-08-08T04:18:08.761Z,12.28
2023-08-08T04:21:10.779Z,12.26
2023-08-08T04:24:13.500Z,12.14
2023-08-08T04:27:15.413Z,12.16
2023-08-08T04:30:17.429Z,12.18
2023-08-08T04:33:19.268Z,12.37
2023-08-08T04:36:21.084Z,12.51
2023-08-08T04:39:23.018Z,12.39
2023-08-08T04:42:24.843Z,12.47
2023-08-08T04:45:28.352Z,12.59
2023-08-08T04:48:30.257Z,13.28
2023-08-08T04:51:37.517Z,13.76
2023-08-08T04:54:53.679Z,14.60
2023-08-08T04:58:01.751Z,14.80
2023-08-08T05:01:23.677Z,16.34
2023-08-08T05:28:35.746Z,16.19
2023-08-08T05:32:12.425Z,15.58
2023-08-08T05:35:17.367Z,15.86
2023-08-08T05:38:19.287Z,15.78
2023-08-08T05:41:21.183Z,16.27
2023-08-08T05:44:23.040Z,16.83
2023-08-08T05:47:24.875Z,17.35
2023-08-08T05:50:28.356Z,16.71
2023-08-08T05:53:30.275Z,17.21
2023-08-08T05:56:38.333Z,16.91
2023-08-08T05:59:40.500Z,17.25
2023-08-08T06:02:42.581Z,17.43
2023-08-08T06:05:44.711Z,17.36
2023-08-08T06:08:46.554Z,17.61
2023-08-08T06:12:06.992Z,17.58
2023-08-08T06:15:09.750Z,18.56
2023-08-08T06:18:11.621Z,19.28
2023-08-08T06:21:15.830Z,18.70
2023-08-08T06:24:17.734Z,19.37
2023-08-08T06:27:19.546Z,20.17
2023-08-08T06:30:21.620Z,18.68
2023-08-08T06:33:23.490Z,18.54
2023-08-08T06:36:25.344Z,19.35
2023-08-08T06:39:27.401Z,19.75
2023-08-08T06:42:29.250Z,21.37
2023-08-08T06:45:31.165Z,21.63
2023-08-08T06:48:32.992Z,22.54
2023-08-08T06:51:35.012Z,22.94
2023-08-08T06:54:36.950Z,23.01
2023-08-08T06:57:38.819Z,23.14
2023-08-08T07:00:40.882Z,23.00
2023-08-08T07:03:42.831Z,23.84
2023-08-08T07:06:48.128Z,23.99
2023-08-08T07:09:50.254Z,21.35
2023-08-08T07:12:52.678Z,20.52
2023-08-08T07:15:54.593Z,19.79
2023-08-08T07:18:56.880Z,19.47
2023-08-08T07:21:59.250Z,20.38
2023-08-08T07:25:01.590Z,21.09
2023-08-08T07:28:06.682Z,20.90
2023-08-08T07:31:08.591Z,22.76
2023-08-08T07:34:10.464Z,21.85
2023-08-08T07:37:12.299Z,22.18
2023-08-08T07:40:21.599Z,20.82
2023-08-08T07:43:23.442Z,20.52
2023-08-08T07:46:25.655Z,23.67
2023-08-08T07:49:27.486Z,24.06
2023-08-08T07:52:29.373Z,22.40
2023-08-08T07:55:31.352Z,23.58
2023-08-08T07:58:33.669Z,20.83
2023-08-08T08:01:35.704Z,22.19
2023-08-08T08:04:37.559Z,24.65
2023-08-08T08:07:40.043Z,24.17
2023-08-08T08:10:41.938Z,22.88
2023-08-08T08:13:44.161Z,21.51
2023-08-08T08:16:46.669Z,21.17
2023-08-08T08:19:48.626Z,20.64
2023-08-08T08:22:50.632Z,19.48
2023-08-08T08:25:52.625Z,19.08
2023-08-08T08:28:54.524Z,18.33
2023-08-08T08:31:56.511Z,18.80
2023-08-08T08:34:58.336Z,20.06
2023-08-08T08:38:00.144Z,20.67
2023-08-08T08:41:04.450Z,24.15
2023-08-08T08:44:09.369Z,24.26
2023-08-08T08:47:14.154Z,23.39
2023-08-08T08:50:17.068Z,22.19
2023-08-08T08:53:19.119Z,21.54
2023-08-08T08:56:21.529Z,22.00
2023-08-08T08:59:23.670Z,21.29
2023-08-08T09:02:25.566Z,20.71
2023-08-08T09:05:27.825Z,20.26
2023-08-08T09:08:30.673Z,19.84
2023-08-08T09:11:33.036Z,19.18
2023-08-08T09:14:35.320Z,19.33
2023-08-08T09:17:47.493Z,18.84
2023-08-08T09:20:52.190Z,19.47
2023-08-08T09:23:54.011Z,19.03
2023-08-08T09:26:55.850Z,19.59
2023-08-08T09:29:57.942Z,18.97
2023-08-08T09:33:02.079Z,19.54
2023-08-08T09:36:04.189Z,20.36
2023-08-08T09:39:06.289Z,21.10
2023-08-08T09:42:11.222Z,19.75
2023-08-08T09:45:13.999Z,20.00
2023-08-08T09:48:17.521Z,19.40
2023-08-08T09:51:21.571Z,20.98
2023-08-08T09:54:24.762Z,21.35
2023-08-08T09:57:27.162Z,21.87
2023-08-08T10:00:31.510Z,21.68
2023-08-08T10:03:34.456Z,22.25
2023-08-08T10:06:37.143Z,21.92
2023-08-08T10:09:39.883Z,21.08
2023-08-08T10:12:42.767Z,20.56
2023-08-08T10:15:44.747Z,20.50
2023-08-08T10:18:56.837Z,20.64
2023-08-08T10:22:01.841Z,20.96
2023-08-08T10:25:05.750Z,20.19
2023-08-08T10:31:23.441Z,20.73
2023-08-08T10:34:38.243Z,21.07
2023-08-08T10:37:40.922Z,20.97
2023-08-08T10:40:44.807Z,20.87
2023-08-08T10:43:58.438Z,21.85
2023-08-08T10:47:01.668Z,22.12
2023-08-08T10:50:22.749Z,21.32
2023-08-08T10:53:28.081Z,21.75
2023-08-08T10:56:32.478Z,22.29
2023-08-08T10:59:38.901Z,22.49
2023-08-08T11:02:42.113Z,21.35
2023-08-08T11:05:52.086Z,21.46
2023-08-08T11:08:55.667Z,21.53
2023-08-08T11:11:57.828Z,21.55
2023-08-08T11:15:00.225Z,22.41
2023-08-08T11:18:03.394Z,22.85
2023-08-08T11:21:18.285Z,23.56
2023-08-08T11:24:21.170Z,23.93
2023-08-08T11:30:33.599Z,24.04
2023-08-08T11:33:35.600Z,22.53
2023-08-08T11:36:38.496Z,20.91
2023-08-08T11:39:40.527Z,21.53
2023-08-08T11:42:43.617Z,22.11
2023-08-08T11:45:45.488Z,23.14
2023-08-08T11:48:48.256Z,23.57
2023-08-08T11:51:50.074Z,23.83
2023-08-08T11:54:54.877Z,23.37
2023-08-08T11:58:01.305Z,24.22
2023-08-08T12:01:03.458Z,23.53
2023-08-08T12:04:07.946Z,23.52
2023-08-08T12:07:11.068Z,23.23
2023-08-08T12:10:20.925Z,22.11
2023-08-08T12:13:24.611Z,22.92
2023-08-08T12:16:32.266Z,22.89
2023-08-08T12:19:35.500Z,22.53
2023-08-08T12:22:37.991Z,21.88
2023-08-08T12:25:40.380Z,22.32
2023-08-08T12:28:42.601Z,22.49
2023-08-08T12:31:44.508Z,22.80
2023-08-08T12:34:46.491Z,22.23
2023-08-08T12:37:48.501Z,22.59
2023-08-08T12:40:50.787Z,22.75
2023-08-08T12:43:53.489Z,22.53
2023-08-08T12:46:55.509Z,22.66
2023-08-08T12:49:57.469Z,22.76
2023-08-08T12:52:59.505Z,22.29
2023-08-08T12:56:01.686Z,21.96
2023-08-08T12:59:04.150Z,22.12
2023-08-08T13:02:06.105Z,22.16
2023-08-08T13:05:08.300Z,21.97
2023-08-08T13:08:10.242Z,21.60
2023-08-08T13:11:12.248Z,21.49
2023-08-08T13:14:14.048Z,20.65
2023-08-08T13:17:15.986Z,20.05
2023-08-08T13:20:17.899Z,19.94
2023-08-08T13:23:19.789Z,20.66
2023-08-08T13:26:21.688Z,20.96
2023-08-08T13:29:23.645Z,21.09
2023-08-08T13:32:25.639Z,20.71
2023-08-08T13:35:27.560Z,21.05
2023-08-08T13:38:29.414Z,20.80
2023-08-08T13:41:31.691Z,20.80
2023-08-08T13:44:33.506Z,20.13
2023-08-08T13:47:35.508Z,20.25
2023-08-08T13:50:37.362Z,20.38
2023-08-08T13:53:39.222Z,20.47
2023-08-08T13:56:41.052Z,19.90
2023-08-08T13:59:43.113Z,19.98
2023-08-08T14:02:44.996Z,19.69
2023-08-08T14:05:47.217Z,20.11
2023-08-08T14:08:49.567Z,19.46
2023-08-08T14:11:51.534Z,19.18
2023-08-08T14:14:53.331Z,18.78
2023-08-08T14:17:55.667Z,18.97
2023-08-08T14:20:57.705Z,19.15
2023-08-08T14:23:59.550Z,19.15
2023-08-08T14:27:01.866Z,19.51
2023-08-08T14:30:05.109Z,19.72
2023-08-08T14:33:07.206Z,19.28
2023-08-08T14:36:09.605Z,19.05
2023-08-08T14:39:12.267Z,19.39
2023-08-08T14:42:14.577Z,19.30
2023-08-08T14:45:16.478Z,19.22
2023-08-08T14:48:18.404Z,19.03
2023-08-08T14:51:21.269Z,18.74
2023-08-08T14:54:23.341Z,18.26
2023-08-08T14:57:25.500Z,17.96
2023-08-08T15:00:27.456Z,17.44
2023-08-08T15:03:29.416Z,17.35
2023-08-08T15:06:31.403Z,16.89
2023-08-08T15:09:33.244Z,17.28
2023-08-08T15:12:35.142Z,17.49
2023-08-08T15:15:37.243Z,17.31
2023-08-08T15:18:39.205Z,17.71
2023-08-08T15:21:41.072Z,17.86
2023-08-08T15:24:43.208Z,17.73
2023-08-08T15:27:45.149Z,17.72
2023-08-08T15:30:47.127Z,17.64
2023-08-08T15:33:49.312Z,17.87
2023-08-08T15:36:51.832Z,18.04
2023-08-08T15:39:53.972Z,18.03
2023-08-08T15:42:56.148Z,18.08
2023-08-08T15:46:00.143Z,17.95
2023-08-08T15:49:02.674Z,18.08
2023-08-08T15:52:04.786Z,18.12
2023-08-08T15:55:07.110Z,17.93
2023-08-08T15:58:09.058Z,17.89
2023-08-08T16:01:11.210Z,17.75
2023-08-08T16:04:16.044Z,17.79
2023-08-08T16:07:19.450Z,17.97
2023-08-08T16:10:21.271Z,17.85
2023-08-08T16:13:23.459Z,17.39
2023-08-08T16:16:25.452Z,17.32
2023-08-08T16:19:27.375Z,17.39
2023-08-08T16:22:29.229Z,17.22
2023-08-08T16:25:31.157Z,17.21
2023-08-08T16:28:33.535Z,17.19
2023-08-08T16:31:35.917Z,17.15
2023-08-08T16:34:37.933Z,16.86
2023-08-08T16:37:39.795Z,16.83
2023-08-08T16:40:41.763Z,16.98
2023-08-08T16:43:43.690Z,16.77
2023-08-08T16:46:45.681Z,16.77
2023-08-08T16:49:47.894Z,16.73
2023-08-08T16:52:50.035Z,16.60
2023-08-08T16:55:52.120Z,16.60
2023-08-08T16:58:54.168Z,16.35
2023-08-08T17:01:56.212Z,16.50
2023-08-08T17:04:58.137Z,16.40
2023-08-08T17:08:00.268Z,16.31
2023-08-08T17:11:02.221Z,16.32
2023-08-08T17:14:04.630Z,16.12
2023-08-08T17:17:06.500Z,16.21
2023-08-08T17:20:08.924Z,15.99
2023-08-08T17:23:11.115Z,16.14
2023-08-08T17:26:14.067Z,16.04
2023-08-08T17:29:16.083Z,16.06
2023-08-08T17:32:18.225Z,16.05
2023-08-08T17:35:20.198Z,16.10
2023-08-08T17:38:22.033Z,15.99
2023-08-08T17:41:23.859Z,16.07
2023-08-08T17:44:25.738Z,15.84
2023-08-08T17:47:27.665Z,15.85
2023-08-08T17:50:29.508Z,15.83
2023-08-08T17:53:31.403Z,15.85
2023-08-08T17:56:33.240Z,15.84
2023-08-08T17:59:35.043Z,15.79
2023-08-08T18:02:40.205Z,15.67
2023-08-08T18:05:42.172Z,15.64
2023-08-08T18:08:44.108Z,15.59
2023-08-08T18:11:46.782Z,15.64
2023-08-08T18:14:49.957Z,15.44
2023-08-08T18:17:51.959Z,15.37
2023-08-08T18:20:54.777Z,15.32
2023-08-08T18:23:57.071Z,15.39
2023-08-08T18:27:00.823Z,15.39
2023-08-08T18:30:02.742Z,15.24
2023-08-08T18:33:04.852Z,15.26
2023-08-08T18:36:08.139Z,15.15
2023-08-08T18:39:11.595Z,15.17
2023-08-08T18:42:16.224Z,15.12
2023-08-08T18:45:18.108Z,15.13
2023-08-08T18:48:20.790Z,15.06
2023-08-08T18:51:22.832Z,15.04
2023-08-08T18:54:25.556Z,14.94
2023-08-08T18:57:27.800Z,14.98
2023-08-08T19:00:29.819Z,14.84
2023-08-08T19:03:32.169Z,14.78
2023-08-08T19:06:34.312Z,14.88
2023-08-08T19:09:36.341Z,14.86
2023-08-08T19:12:38.469Z,14.81
2023-08-08T19:15:40.666Z,14.67
2023-08-08T19:18:42.498Z,14.73
2023-08-08T19:21:44.667Z,14.59
2023-08-08T19:24:46.724Z,14.55
2023-08-08T19:27:48.837Z,14.66
2023-08-08T19:30:50.806Z,14.57
2023-08-08T19:34:05.597Z,14.48
2023-08-08T19:37:12.694Z,14.48
2023-08-08T19:40:14.691Z,14.43
2023-08-08T19:43:17.214Z,14.34
2023-08-08T19:46:19.184Z,14.27
2023-08-08T19:49:21.133Z,14.29
2023-08-08T19:52:24.192Z,14.28
2023-08-08T19:55:26.239Z,14.31
2023-08-08T19:58:28.242Z,14.20
2023-08-08T20:01:30.875Z,14.18
2023-08-08T20:04:32.785Z,14.23
2023-08-08T20:07:34.883Z,14.20
2023-08-08T20:10:36.904Z,14.17
2023-08-08T20:13:38.838Z,14.13
2023-08-08T20:16:40.861Z,14.19
2023-08-08T20:19:43.015Z,14.20
2023-08-08T20:22:45.070Z,14.19
2023-08-08T20:25:46.921Z,14.16
2023-08-08T20:28:49.648Z,14.18
2023-08-08T20:31:51.496Z,14.14
2023-08-08T20:34:53.343Z,14.19
2023-08-08T20:37:55.182Z,14.19
2023-08-08T20:40:57.112Z,14.13
2023-08-08T20:43:59.086Z,14.13
2023-08-08T20:47:01.308Z,14.09
2023-08-08T20:50:06.386Z,14.21
2023-08-08T20:53:11.940Z,14.19
2023-08-08T20:56:13.698Z,14.22
2023-08-08T20:59:15.538Z,14.33
2023-08-08T21:02:18.822Z,14.29
2023-08-08T21:05:23.171Z,14.32
2023-08-08T21:08:25.019Z,14.32
2023-08-08T21:11:26.900Z,14.36
2023-08-08T21:14:28.729Z,14.45
2023-08-08T21:17:30.663Z,14.46
2023-08-08T21:20:32.563Z,14.42
2023-08-08T21:23:34.394Z,14.48
2023-08-08T21:26:39.934Z,14.47
2023-08-08T21:29:44.839Z,14.56
2023-08-08T21:32:46.734Z,14.62
2023-08-08T21:35:49.292Z,14.68
2023-08-08T21:38:53.593Z,14.68
2023-08-08T21:41:55.929Z,14.52
2023-08-08T21:44:58.339Z,14.56
2023-08-08T21:48:00.723Z,14.48
2023-08-08T21:51:03.068Z,14.53
2023-08-08T21:54:05.605Z,14.57
2023-08-08T21:57:08.012Z,14.59
2023-08-08T22:00:15.790Z,14.54
2023-08-08T22:03:18.129Z,14.59
2023-08-08T22:06:20.047Z,14.57
2023-08-08T22:09:21.927Z,14.57
2023-08-08T22:12:23.793Z,14.58
2023-08-08T22:15:25.584Z,14.65
2023-08-08T22:18:27.699Z,14.61
2023-08-08T22:21:29.640Z,14.57
2023-08-08T22:24:34.100Z,14.55
2023-08-08T22:27:36.236Z,14.59
2023-08-08T22:30:38.216Z,14.69
2023-08-08T22:33:40.265Z,14.66
2023-08-08T22:36:42.109Z,14.67
2023-08-08T22:39:43.941Z,14.58
2023-08-08T22:42:45.730Z,14.60
2023-08-08T22:45:47.584Z,14.57
2023-08-08T22:48:49.408Z,14.56
2023-08-08T22:51:51.324Z,14.61
2023-08-08T22:54:54.328Z,14.62
2023-08-08T22:57:57.473Z,14.64
2023-08-08T23:01:04.982Z,14.63
2023-08-08T23:04:16.142Z,14.66
2023-08-08T23:07:19.459Z,14.65
2023-08-08T23:10:21.326Z,14.64
2023-08-08T23:13:23.467Z,14.58
2023-08-08T23:16:25.327Z,14.54
2023-08-08T23:19:27.118Z,14.51
2023-08-08T23:22:28.913Z,14.50
2023-08-08T23:25:30.716Z,14.43
2023-08-08T23:28:32.598Z,14.43
2023-08-08T23:31:34.561Z,14.41
2023-08-08T23:34:36.512Z,14.30
2023-08-08T23:37:39.107Z,14.27
2023-08-08T23:40:40.877Z,14.25
2023-08-08T23:43:44.430Z,14.17
2023-08-08T23:46:46.381Z,14.05
2023-08-08T23:49:48.306Z,14.11
2023-08-08T23:52:50.480Z,14.00
2023-08-08T23:55:52.357Z,13.97
2023-08-08T23:58:54.162Z,13.84
